Time;durP1;ratioP1;P1;durP2;ratioP2;P2;SDS_P1;SDS_P2;PMS_P1;PMS_P2;Temp;Humidity;BMP_temperature;BMP_pressure;BME280_temperature;BME280_humidity;BME280_pressure;Samples;Min_cycle;Max_cycle;Signal;HPM_P1;HPM_P2
2022/03/03 00:02:21;;;;;;;68.10;42.40;;;;;;;4.55;73.07;102001.34;4982112;28;20456;-65
2022/03/03 00:04:47;;;;;;;75.77;42.13;;;;;;;4.43;72.77;102006.72;4965016;28;20184;-65
2022/03/03 00:07:12;;;;;;;70.00;40.67;;;;;;;4.40;73.71;101996.22;4982275;28;20185;-65
2022/03/03 00:09:37;;;;;;;73.67;43.80;;;;;;;4.14;73.70;102012.81;5001328;28;20219;-66
2022/03/03 00:12:03;;;;;;;79.40;44.47;;;;;;;4.21;74.78;101999.47;5001203;28;20648;-65
2022/03/03 00:14:28;;;;;;;74.53;43.60;;;;;;;4.28;73.67;102004.16;5001202;28;20202;-67
2022/03/03 00:16:53;;;;;;;80.70;44.07;;;;;;;4.43;72.92;102000.66;5001166;28;20185;-66
2022/03/03 00:19:19;;;;;;;82.50;47.60;;;;;;;4.04;73.71;102001.97;5001422;28;20442;-65
2022/03/03 00:21:44;;;;;;;87.07;47.00;;;;;;;3.93;75.14;102008.22;5001192;28;20171;-64
2022/03/03 00:24:09;;;;;;;91.13;47.37;;;;;;;4.08;73.75;102015.94;5000823;28;20190;-65
2022/03/03 00:26:35;;;;;;;85.13;46.73;;;;;;;4.35;73.49;102016.59;5001225;28;20187;-65
2022/03/03 00:29:00;;;;;;;84.70;45.40;;;;;;;4.18;73.50;102020.84;5000471;28;20250;-66
2022/03/03 00:31:25;;;;;;;87.00;46.10;;;;;;;4.21;73.66;102009.81;5000999;28;20237;-65
2022/03/03 00:33:51;;;;;;;85.27;47.13;;;;;;;4.50;72.67;102020.84;4984052;28;20218;-64
2022/03/03 00:36:16;;;;;;;81.23;45.80;;;;;;;3.85;74.67;102030.13;5000757;28;20273;-65
2022/03/03 00:38:41;;;;;;;95.57;48.03;;;;;;;3.90;74.21;102033.84;5000586;28;20176;-65
2022/03/03 00:41:07;;;;;;;79.70;44.10;;;;;;;3.78;73.74;102033.16;5001193;28;20183;-66
2022/03/03 00:43:32;;;;;;;80.37;46.80;;;;;;;3.69;74.61;102041.22;5000462;28;20218;-65
2022/03/03 00:45:57;;;;;;;81.47;44.57;;;;;;;2.48;78.00;102051.94;4999789;28;20511;-65
2022/03/03 00:48:23;;;;;;;87.53;42.97;;;;;;;1.70;80.57;102059.72;5000702;28;20315;-65
2022/03/03 00:50:48;;;;;;;87.50;41.07;;;;;;;1.41;83.16;102053.47;5000448;28;20252;-64
2022/03/03 00:53:13;;;;;;;112.27;39.33;;;;;;;0.96;84.89;102046.19;4983798;28;20425;-65
2022/03/03 00:55:39;;;;;;;78.53;39.73;;;;;;;1.81;84.98;102033.03;5000979;28;20226;-64
2022/03/03 00:58:04;;;;;;;96.70;42.60;;;;;;;1.83;83.97;102040.06;5000247;28;20206;-66
2022/03/03 01:00:30;;;;;;;93.47;42.80;;;;;;;2.26;83.43;102046.22;5000340;28;20495;-66
2022/03/03 01:02:55;;;;;;;82.60;42.20;;;;;;;2.72;81.36;102044.00;5000786;28;20313;-65
2022/03/03 01:05:20;;;;;;;108.80;45.97;;;;;;;2.55;80.22;102040.34;5000166;28;20184;-65
2022/03/03 01:07:46;;;;;;;94.00;42.70;;;;;;;2.02;82.51;102042.16;4994461;28;20228;-66
2022/03/03 01:10:11;;;;;;;75.43;37.73;;;;;;;1.88;82.15;102036.88;4981093;28;20203;-66
2022/03/03 01:12:37;;;;;;;80.47;41.17;;;;;;;1.91;82.77;102045.72;4980370;28;20184;-64
2022/03/03 01:15:04;;;;;;;73.97;38.57;;;;;;;2.17;83.30;102044.81;4980697;28;20191;-65
2022/03/03 01:17:30;;;;;;;72.33;38.83;;;;;;;1.89;82.98;102037.00;4980690;28;20681;-65
2022/03/03 01:19:55;;;;;;;69.40;39.33;;;;;;;2.35;81.74;102036.50;4980322;28;20434;-66
2022/03/03 01:22:21;;;;;;;69.33;38.77;;;;;;;2.86;80.42;102022.56;4980329;28;20172;-65
2022/03/03 01:24:46;;;;;;;72.77;37.83;;;;;;;3.16;78.93;102016.63;4964159;28;20160;-65
2022/03/03 01:27:12;;;;;;;76.93;39.20;;;;;;;3.19;77.63;102014.22;4980155;28;20235;-65
2022/03/03 01:29:37;;;;;;;74.53;38.53;;;;;;;3.32;76.33;102008.13;4980197;28;20220;-65
2022/03/03 01:32:04;;;;;;;73.70;38.60;;;;;;;2.78;76.95;102012.59;4963881;28;20168;-65
2022/03/03 01:34:29;;;;;;;69.10;38.47;;;;;;;3.01;77.34;102009.72;4980231;28;20263;-65
2022/03/03 01:36:55;;;;;;;63.80;35.20;;;;;;;2.88;78.20;102020.06;4979215;28;20531;-65
2022/03/03 01:39:20;;;;;;;70.37;37.47;;;;;;;3.40;76.44;102009.47;4980277;28;20168;-65
2022/03/03 01:41:45;;;;;;;74.60;38.17;;;;;;;2.95;76.93;102014.53;4980182;28;20275;-65
2022/03/03 01:44:11;;;;;;;83.23;37.70;;;;;;;3.45;76.25;102014.88;4980246;28;20190;-66
2022/03/03 01:46:47;;;;;;;72.23;40.83;;;;;;;3.35;75.73;102008.28;4980680;28;20190;-65
2022/03/03 01:49:12;;;;;;;80.30;38.40;;;;;;;3.12;74.98;102018.09;4979757;28;20528;-64
2022/03/03 01:51:38;;;;;;;82.13;38.50;;;;;;;3.33;76.06;102008.22;4979968;28;20416;-65
2022/03/03 01:54:03;;;;;;;74.43;37.80;;;;;;;3.42;76.50;102007.84;4980014;28;20218;-64
2022/03/03 01:56:29;;;;;;;72.60;38.70;;;;;;;3.68;74.93;102004.25;4979931;28;20211;-65
2022/03/03 01:58:54;;;;;;;69.87;38.07;;;;;;;3.28;74.78;102009.63;4980056;28;20525;-65
2022/03/03 02:01:19;;;;;;;72.93;38.47;;;;;;;3.39;74.89;102005.09;4963023;28;20216;-65
2022/03/03 02:03:45;;;;;;;78.27;38.57;;;;;;;3.15;75.28;102001.94;4979599;28;20211;-64
2022/03/03 02:06:10;;;;;;;70.47;38.70;;;;;;;3.44;75.91;101997.66;4989681;28;20251;-65
2022/03/03 02:08:35;;;;;;;80.50;40.80;;;;;;;3.14;76.10;101990.75;4987083;28;20314;-65
2022/03/03 02:11:01;;;;;;;92.63;38.30;;;;;;;2.80;76.77;101987.81;4979710;28;20630;-64
2022/03/03 02:13:26;;;;;;;74.53;38.30;;;;;;;3.25;75.75;101995.66;4980009;28;20173;-66
2022/03/03 02:15:53;;;;;;;65.57;34.27;;;;;;;3.24;75.91;101996.47;4979698;28;20187;-66
2022/03/03 02:18:18;;;;;;;73.27;36.50;;;;;;;2.42;76.50;102000.09;4979298;28;20180;-65
2022/03/03 02:20:44;;;;;;;77.27;37.77;;;;;;;1.57;80.18;102010.06;4979895;28;20407;-64
2022/03/03 02:23:09;;;;;;;65.70;36.00;;;;;;;1.89;82.26;102011.28;4979530;28;20255;-66
2022/03/03 02:25:34;;;;;;;71.67;37.70;;;;;;;1.94;81.43;102012.47;4979269;28;20449;-67
2022/03/03 02:28:00;;;;;;;62.67;36.13;;;;;;;2.22;81.36;102006.56;4979913;28;20203;-64
2022/03/03 02:30:26;;;;;;;60.10;34.70;;;;;;;2.36;79.64;101992.84;4979259;28;20212;-65
2022/03/03 02:32:51;;;;;;;64.30;36.30;;;;;;;3.87;80.79;101985.56;4979521;28;20175;-58
2022/03/03 02:35:17;;;;;;;37.63;21.30;;;;;;;9.05;68.33;101956.69;4979919;28;20494;-57
2022/03/03 02:37:44;;;;;;;57.40;33.83;;;;;;;3.86;68.71;101981.19;4979023;28;20180;-66
2022/03/03 02:40:29;;;;;;;52.00;31.70;;;;;;;3.66;71.73;101977.47;4979104;28;20179;-65
2022/03/03 02:42:55;;;;;;;46.23;28.70;;;;;;;2.29;75.84;101977.84;4979037;28;20415;-63
2022/03/03 02:45:21;;;;;;;46.40;30.20;;;;;;;1.65;79.14;101984.84;4979215;28;20451;-65
2022/03/03 02:47:48;;;;;;;49.27;29.80;;;;;;;1.72;80.29;101983.56;4979611;28;20199;-64
2022/03/03 02:50:15;;;;;;;57.23;32.47;;;;;;;1.97;80.46;101979.22;4979261;28;20479;-66
2022/03/03 02:52:40;;;;;;;55.10;32.47;;;;;;;2.73;78.09;101978.81;4979226;28;20446;-65
2022/03/03 02:55:06;;;;;;;49.90;30.77;;;;;;;2.39;76.93;101986.13;4979668;28;20852;-64
2022/03/03 03:00:15;;;;;;;51.03;31.03;;;;;;;2.00;81.00;101991.41;4964916;28;20215;-63
2022/03/03 03:02:41;;;;;;;60.90;32.40;;;;;;;2.29;79.30;101982.09;4962210;28;20452;-64
2022/03/03 03:05:06;;;;;;;56.50;33.33;;;;;;;2.78;77.49;101979.13;4978818;28;20188;-67
2022/03/03 03:07:32;;;;;;;59.47;33.30;;;;;;;2.70;76.80;101961.50;4965799;28;20226;-64
2022/03/03 03:09:57;;;;;;;58.83;32.07;;;;;;;3.33;75.31;101951.50;5002431;28;20212;-64
2022/03/03 03:12:22;;;;;;;55.37;31.40;;;;;;;3.18;73.47;101954.06;5002349;28;20182;-63
2022/03/03 03:14:48;;;;;;;56.50;32.17;;;;;;;2.93;73.88;101941.41;4985165;28;20195;-63
2022/03/03 03:17:13;;;;;;;59.57;29.07;;;;;;;3.00;74.74;101941.00;5002058;28;20561;-63
2022/03/03 03:19:38;;;;;;;54.27;31.10;;;;;;;2.67;75.44;101945.84;5002390;28;20163;-64
2022/03/03 03:22:04;;;;;;;49.50;29.07;;;;;;;2.11;76.90;101956.97;5001899;28;20183;-64
2022/03/03 03:24:29;;;;;;;51.47;29.83;;;;;;;2.60;77.42;101956.59;5002215;28;20538;-65
2022/03/03 03:26:55;;;;;;;56.13;31.20;;;;;;;2.68;76.32;101951.91;5002257;28;20176;-64
2022/03/03 03:29:20;;;;;;;50.83;30.20;;;;;;;2.22;76.93;101946.47;5001664;28;20215;-65
2022/03/03 03:31:45;;;;;;;50.87;27.37;;;;;;;1.85;77.56;101948.50;5001722;28;20199;-65
2022/03/03 03:34:11;;;;;;;49.17;27.53;;;;;;;1.64;78.82;101954.81;5002212;28;20176;-64
2022/03/03 03:36:36;;;;;;;48.93;27.17;;;;;;;1.18;80.96;101961.22;5001804;28;20563;-64
2022/03/03 03:39:01;;;;;;;49.43;28.80;;;;;;;1.82;80.04;101952.53;5001646;28;20178;-65
2022/03/03 03:41:27;;;;;;;48.77;28.80;;;;;;;1.92;78.78;101964.28;4985135;28;20185;-65
2022/03/03 03:43:52;;;;;;;50.67;28.10;;;;;;;2.29;77.97;101964.97;5001552;28;20453;-65
2022/03/03 03:46:17;;;;;;;57.90;29.17;;;;;;;2.26;77.63;101964.78;5001442;28;20179;-66
2022/03/03 03:48:43;;;;;;;51.87;28.53;;;;;;;1.72;79.09;101961.34;5001539;28;20187;-65
2022/03/03 03:51:08;;;;;;;67.17;28.37;;;;;;;1.34;79.27;101960.59;5001418;28;20294;-64
2022/03/03 03:53:33;;;;;;;56.03;28.40;;;;;;;0.86;81.99;101965.84;5001387;28;20176;-65
2022/03/03 03:55:59;;;;;;;56.33;29.70;;;;;;;1.23;82.81;101964.13;5001817;28;20179;-64
2022/03/03 03:58:24;;;;;;;50.67;27.93;;;;;;;1.52;81.08;101944.59;5001436;28;20191;-64
2022/03/03 04:00:50;;;;;;;54.13;30.70;;;;;;;2.25;78.99;101933.81;5001300;28;20262;-66
2022/03/03 04:03:15;;;;;;;60.50;31.93;;;;;;;2.50;77.00;101938.78;5001674;28;20179;-65
2022/03/03 04:05:41;;;;;;;57.03;31.10;;;;;;;2.14;77.59;101936.59;4995394;28;20184;-65
2022/03/03 04:08:06;;;;;;;78.80;31.83;;;;;;;2.54;76.81;101943.31;4990992;28;20254;-66
2022/03/03 04:10:31;;;;;;;62.97;31.37;;;;;;;2.58;76.40;101937.56;5001327;28;20227;-64
2022/03/03 04:12:57;;;;;;;54.90;30.87;;;;;;;2.51;75.80;101943.16;5000912;28;20214;-66
2022/03/03 04:15:22;;;;;;;54.50;29.90;;;;;;;2.84;75.36;101935.69;4983927;28;20259;-66
2022/03/03 04:17:48;;;;;;;51.93;30.03;;;;;;;2.74;76.11;101935.94;5001119;28;20163;-65
2022/03/03 04:20:14;;;;;;;54.00;28.47;;;;;;;2.57;74.73;101937.47;4999472;28;20172;-67
2022/03/03 04:22:39;;;;;;;58.80;30.27;;;;;;;2.65;74.82;101938.84;5000848;28;20458;-66
2022/03/03 04:25:05;;;;;;;51.40;28.30;;;;;;;2.85;74.90;101927.16;5001521;28;20191;-66
2022/03/03 04:27:30;;;;;;;50.53;29.67;;;;;;;1.71;77.62;101943.25;5000655;28;20175;-66
2022/03/03 04:29:55;;;;;;;45.70;28.00;;;;;;;2.45;76.54;101942.75;5000902;28;20283;-67
2022/03/03 04:32:21;;;;;;;44.23;26.23;;;;;;;2.48;75.24;101936.13;5001366;28;20438;-66
2022/03/03 04:34:46;;;;;;;55.30;26.13;;;;;;;2.62;75.07;101936.97;5000907;28;20187;-66
2022/03/03 04:37:12;;;;;;;46.67;25.20;;;;;;;2.40;74.96;101934.75;5000751;28;20179;-67
2022/03/03 04:39:37;;;;;;;46.30;27.83;;;;;;;2.55;74.93;101932.25;4984242;28;20237;-66
2022/03/03 04:42:04;;;;;;;41.13;24.70;;;;;;;2.67;74.21;101919.22;5000688;28;20306;-67
2022/03/03 04:44:29;;;;;;;83.60;24.70;;;;;;;1.92;74.51;101921.50;5000728;28;20287;-66
2022/03/03 04:46:54;;;;;;;57.60;24.80;;;;;;;2.02;75.47;101926.41;5001051;28;20506;-66
2022/03/03 04:49:20;;;;;;;87.43;27.93;;;;;;;2.12;75.20;101920.16;5000344;28;20214;-66
2022/03/03 04:51:45;;;;;;;61.87;25.53;;;;;;;2.11;75.38;101912.34;5000731;28;20180;-66
2022/03/03 04:54:11;;;;;;;52.20;24.87;;;;;;;2.17;75.96;101916.19;5001095;28;20265;-67
2022/03/03 04:56:37;;;;;;;42.27;23.50;;;;;;;1.80;76.93;101919.00;4983677;28;20180;-67
2022/03/03 04:59:02;;;;;;;41.17;22.90;;;;;;;2.36;75.47;101917.34;4983569;28;20469;-68
2022/03/03 05:01:28;;;;;;;117.03;25.80;;;;;;;2.50;74.86;101925.91;5000856;28;20529;-67
2022/03/03 05:03:53;;;;;;;49.33;24.80;;;;;;;1.47;77.32;101930.56;5000089;28;20270;-67
2022/03/03 05:06:18;;;;;;;42.43;23.20;;;;;;;1.90;77.25;101917.91;5000392;28;20179;-67
2022/03/03 05:08:44;;;;;;;37.60;22.57;;;;;;;2.34;75.94;101908.63;4999914;28;20262;-67
2022/03/03 05:11:09;;;;;;;40.60;25.80;;;;;;;2.40;75.40;101918.44;4983131;28;20175;-66
2022/03/03 05:13:35;;;;;;;62.03;23.03;;;;;;;2.29;75.33;101915.19;5000713;28;20190;-67
2022/03/03 05:16:01;;;;;;;46.93;25.20;;;;;;;2.12;75.16;101912.44;5000249;28;20172;-65
2022/03/03 05:18:26;;;;;;;66.03;24.07;;;;;;;2.23;75.37;101910.53;4999732;28;20428;-68
2022/03/03 05:20:52;;;;;;;63.30;25.10;;;;;;;2.30;74.08;101910.16;5000420;28;20179;-66
2022/03/03 05:23:17;;;;;;;55.10;23.87;;;;;;;2.44;74.08;101910.09;4999817;28;20172;-67
2022/03/03 05:25:42;;;;;;;41.33;22.73;;;;;;;2.19;74.68;101903.41;4983078;28;20434;-66
2022/03/03 05:28:08;;;;;;;79.93;26.97;;;;;;;1.94;74.45;101899.31;5000219;28;20182;-66
2022/03/03 05:30:33;;;;;;;103.13;26.93;;;;;;;1.56;77.42;101899.44;4999471;28;20211;-66
2022/03/03 05:32:59;;;;;;;69.30;26.00;;;;;;;1.83;77.07;101890.03;4999676;28;20189;-66
2022/03/03 05:35:24;;;;;;;41.93;24.60;;;;;;;2.06;76.10;101881.19;5000332;28;20188;-66
2022/03/03 05:37:49;;;;;;;47.27;24.90;;;;;;;1.65;77.02;101882.94;4999450;28;20179;-67
2022/03/03 05:40:15;;;;;;;48.83;25.30;;;;;;;2.14;76.18;101879.13;4999660;28;20545;-65
2022/03/03 05:42:40;;;;;;;45.37;26.27;;;;;;;2.48;75.86;101871.78;4999746;28;20178;-65
2022/03/03 05:45:06;;;;;;;49.73;26.27;;;;;;;2.25;75.70;101887.50;4999385;28;20211;-66
2022/03/03 05:47:33;;;;;;;45.17;27.27;;;;;;;2.41;75.28;101891.88;4982255;28;20191;-67
2022/03/03 05:49:59;;;;;;;43.37;25.83;;;;;;;2.35;75.24;101875.28;4999686;28;20458;-67
2022/03/03 05:52:24;;;;;;;46.47;27.63;;;;;;;2.12;75.42;101875.53;4982587;28;20805;-68
2022/03/03 05:54:49;;;;;;;47.70;27.80;;;;;;;2.16;76.33;101874.94;4999707;28;20187;-66
2022/03/03 05:57:21;;;;;;;67.27;27.07;;;;;;;2.08;76.10;101873.56;4999834;28;20190;-66
2022/03/03 05:59:49;;;;;;;167.40;32.60;;;;;;;2.04;75.69;101892.19;4982361;28;20175;-66
2022/03/03 06:02:17;;;;;;;46.23;27.90;;;;;;;2.00;76.55;101898.81;4998938;28;20425;-68
2022/03/03 06:04:42;;;;;;;53.37;27.33;;;;;;;1.61;77.94;101891.22;4982134;28;20835;-66
2022/03/03 06:07:09;;;;;;;48.13;27.07;;;;;;;1.88;76.52;101882.59;4998894;28;20450;-67
2022/03/03 06:09:35;;;;;;;50.17;28.10;;;;;;;2.04;77.25;101880.19;4999297;28;20464;-67
2022/03/03 06:12:06;;;;;;;53.77;27.13;;;;;;;2.41;75.63;101897.03;4999169;28;20724;-66
2022/03/03 06:14:40;;;;;;;73.40;26.20;;;;;;;0.86;77.39;101910.25;4982199;28;20497;-68
2022/03/03 06:17:06;;;;;;;120.47;30.70;;;;;;;0.87;81.55;101917.19;4998738;28;20423;-68
2022/03/03 06:19:39;;;;;;;57.97;26.93;;;;;;;1.87;78.96;101910.00;4998908;28;20772;-67
2022/03/03 06:22:04;;;;;;;134.30;29.73;;;;;;;1.47;77.22;101917.72;4998831;28;20425;-66
2022/03/03 06:24:29;;;;;;;57.87;27.17;;;;;;;1.48;78.16;101919.50;4998879;28;20427;-66
2022/03/03 06:26:55;;;;;;;61.77;25.37;;;;;;;2.28;76.95;101919.44;4999298;28;20222;-66
2022/03/03 06:29:20;;;;;;;44.70;24.77;;;;;;;1.54;78.46;101925.00;4998822;28;20211;-66
2022/03/03 06:31:45;;;;;;;51.33;27.00;;;;;;;2.00;78.29;101922.88;4981893;28;20561;-66
2022/03/03 06:34:11;;;;;;;44.50;24.43;;;;;;;1.86;77.40;101926.22;4999358;28;20189;-66
2022/03/03 06:36:37;;;;;;;45.43;25.87;;;;;;;2.37;77.69;101929.44;4998889;28;20176;-66
2022/03/03 06:39:02;;;;;;;46.80;24.70;;;;;;;2.12;76.53;101942.44;4998573;28;20559;-65
2022/03/03 06:41:28;;;;;;;41.53;23.00;;;;;;;1.71;78.46;101956.09;4999149;28;20415;-65
2022/03/03 06:43:54;;;;;;;43.30;22.77;;;;;;;1.36;77.87;101960.69;5001419;28;20198;-67
2022/03/03 06:46:21;;;;;;;38.23;22.90;;;;;;;1.17;79.70;101963.69;5002890;28;20426;-66
2022/03/03 06:48:47;;;;;;;47.90;24.70;;;;;;;1.68;79.51;101960.22;5002713;28;20202;-67
2022/03/03 06:51:15;;;;;;;53.80;22.40;;;;;;;1.76;77.98;101947.88;5002780;28;20480;-67
2022/03/03 06:53:43;;;;;;;41.37;22.43;;;;;;;2.22;77.02;101947.38;5002822;28;20172;-66
2022/03/03 06:56:11;;;;;;;40.63;22.10;;;;;;;2.04;76.00;101946.19;5002885;28;20424;-67
2022/03/03 06:58:37;;;;;;;54.27;22.50;;;;;;;1.54;77.83;101950.72;5002449;28;20460;-67
2022/03/03 07:01:06;;;;;;;41.07;21.10;;;;;;;1.89;77.09;101946.97;5002700;28;20442;-69
2022/03/03 07:03:33;;;;;;;38.60;21.27;;;;;;;1.67;77.75;101962.72;5002877;28;20729;-67
2022/03/03 07:05:58;;;;;;;64.70;21.80;;;;;;;1.29;77.75;101967.09;5002620;28;20415;-67
2022/03/03 07:08:24;;;;;;;52.47;22.00;;;;;;;1.42;77.76;101955.97;4984984;28;20478;-67
2022/03/03 07:10:49;;;;;;;58.20;23.07;;;;;;;1.92;77.18;101951.44;5002680;28;20203;-65
2022/03/03 07:13:18;;;;;;;55.53;22.23;;;;;;;2.36;76.52;101954.25;5002696;28;20172;-67
2022/03/03 07:15:55;;;;;;;43.80;22.23;;;;;;;1.54;75.34;101973.84;5002279;28;20245;-66
2022/03/03 07:18:24;;;;;;;37.80;22.00;;;;;;;2.08;76.56;101976.47;5001991;28;20513;-67
2022/03/03 07:21:03;;;;;;;39.37;21.27;;;;;;;2.23;75.51;101977.44;4985147;28;20693;-67
2022/03/03 07:23:39;;;;;;;48.80;19.43;;;;;;;0.53;78.67;101996.97;5002047;28;20422;-67
2022/03/03 07:26:07;;;;;;;29.13;18.57;;;;;;;0.81;79.21;101989.53;5002098;28;20418;-66
2022/03/03 07:28:34;;;;;;;35.73;18.03;;;;;;;1.66;76.89;101984.97;5001904;28;20480;-66
2022/03/03 07:31:01;;;;;;;32.07;17.50;;;;;;;1.23;78.97;101987.25;5001878;28;20482;-67
2022/03/03 07:33:55;;;;;;;50.43;18.53;;;;;;;1.13;78.40;101992.53;5002429;28;20550;-67
2022/03/03 07:36:25;;;;;;;33.73;16.93;;;;;;;0.63;81.05;101990.81;5001907;28;20809;-66
2022/03/03 07:38:59;;;;;;;27.33;14.73;;;;;;;0.31;83.52;102002.22;5001807;28;20429;-65
2022/03/03 07:41:26;;;;;;;28.10;16.40;;;;;;;0.43;82.70;101999.66;5001833;28;20509;-66
2022/03/03 07:43:53;;;;;;;26.67;16.90;;;;;;;1.67;80.50;101986.72;5001761;28;20671;-66
2022/03/03 07:46:20;;;;;;;28.80;15.53;;;;;;;0.03;82.19;102001.91;5001821;28;20449;-66
2022/03/03 07:48:46;;;;;;;34.40;15.80;;;;;;;0.04;83.77;102008.84;5001707;28;20415;-65
2022/03/03 07:51:12;;;;;;;25.67;15.07;;;;;;;0.75;82.66;101999.38;5001972;28;20434;-67
2022/03/03 07:53:38;;;;;;;28.70;17.00;;;;;;;1.75;80.49;101979.53;5001361;28;20443;-67
2022/03/03 07:56:04;;;;;;;27.90;17.03;;;;;;;2.33;77.51;101969.50;5001353;28;20168;-66
2022/03/03 07:58:32;;;;;;;25.50;15.80;;;;;;;2.86;74.56;101970.16;5001500;28;20395;-66
2022/03/03 08:00:59;;;;;;;24.77;15.00;;;;;;;2.27;73.93;101979.41;5001385;28;20414;-68
2022/03/03 08:03:25;;;;;;;24.87;16.37;;;;;;;2.27;74.98;101974.25;4984397;28;20411;-64
2022/03/03 08:05:55;;;;;;;24.23;15.47;;;;;;;2.39;75.17;101975.84;4996227;28;20427;-63
2022/03/03 08:08:22;;;;;;;25.00;15.00;;;;;;;2.13;77.00;101968.25;4990133;28;20652;-65
2022/03/03 08:10:48;;;;;;;25.73;15.57;;;;;;;2.26;76.11;101982.78;4994457;28;20553;-65
2022/03/03 08:13:17;;;;;;;27.77;16.33;;;;;;;2.95;73.99;101969.81;5001551;28;20442;-64
2022/03/03 08:15:43;;;;;;;24.23;14.40;;;;;;;3.17;73.09;101964.28;4983223;28;20512;-64
2022/03/03 08:18:10;;;;;;;26.50;15.80;;;;;;;3.19;71.88;101978.13;4981396;28;20510;-65
2022/03/03 08:20:38;;;;;;;25.63;16.50;;;;;;;2.81;73.81;101964.72;4981987;28;20430;-66
2022/03/03 08:23:03;;;;;;;27.53;16.10;;;;;;;3.43;71.17;101964.94;4989826;28;20438;-65
2022/03/03 08:25:30;;;;;;;24.23;15.83;;;;;;;3.48;70.12;101966.09;5000806;28;20811;-67
2022/03/03 08:27:55;;;;;;;24.60;14.63;;;;;;;2.91;73.45;101967.84;5001252;28;20183;-66
2022/03/03 08:30:21;;;;;;;23.83;14.70;;;;;;;2.06;73.35;101983.19;5000686;28;20529;-65
2022/03/03 08:33:00;;;;;;;19.20;13.03;;;;;;;1.42;78.14;101983.31;5000811;28;20183;-66
2022/03/03 08:35:27;;;;;;;17.80;11.83;;;;;;;2.06;77.00;101984.09;5000945;28;20727;-66
2022/03/03 08:37:59;;;;;;;20.80;13.13;;;;;;;3.18;72.70;101977.25;4983934;28;20426;-65
2022/03/03 08:40:24;;;;;;;20.60;13.03;;;;;;;3.21;72.86;101973.97;4973714;28;20422;-64
2022/03/03 08:42:56;;;;;;;19.80;11.80;;;;;;;3.52;71.64;101973.22;4980713;28;20423;-65
2022/03/03 08:45:23;;;;;;;20.83;12.83;;;;;;;2.32;75.08;101982.28;4980882;28;20168;-66
2022/03/03 08:48:02;;;;;;;24.33;13.70;;;;;;;2.64;75.68;101986.88;4981532;28;20412;-64
2022/03/03 08:50:28;;;;;;;21.17;13.67;;;;;;;2.64;74.17;101975.69;4981228;28;20455;-65
2022/03/03 08:52:58;;;;;;;22.17;13.23;;;;;;;3.78;71.79;101966.09;4981003;28;20408;-65
2022/03/03 08:55:24;;;;;;;29.20;15.37;;;;;;;3.96;70.59;101961.94;4980980;28;20654;-65
2022/03/03 08:57:49;;;;;;;21.00;14.00;;;;;;;4.15;70.37;101968.16;4980781;28;20415;-66
2022/03/03 09:00:15;;;;;;;21.30;14.07;;;;;;;3.13;70.84;101975.22;4964275;28;20423;-65
2022/03/03 09:02:40;;;;;;;24.57;15.17;;;;;;;3.36;75.19;101954.25;4980583;28;20176;-65
2022/03/03 09:05:06;;;;;;;23.23;14.70;;;;;;;3.87;71.53;101951.13;4979925;28;20226;-65
2022/03/03 09:07:32;;;;;;;23.63;15.00;;;;;;;2.41;75.74;101963.94;4980368;28;20282;-66
2022/03/03 09:09:57;;;;;;;23.23;14.03;;;;;;;2.48;75.96;101958.41;4980428;28;20550;-64
2022/03/03 09:12:23;;;;;;;23.03;14.00;;;;;;;3.62;73.80;101957.44;4980677;28;20192;-66
2022/03/03 09:14:48;;;;;;;26.73;14.27;;;;;;;4.37;70.71;101955.63;4993145;28;20182;-66
2022/03/03 09:17:13;;;;;;;19.40;13.40;;;;;;;3.62;70.03;101965.19;4999726;28;20176;-65
2022/03/03 09:19:39;;;;;;;22.80;14.20;;;;;;;2.97;73.52;101956.25;5000250;28;20167;-66
2022/03/03 09:22:04;;;;;;;18.87;13.13;;;;;;;3.51;72.75;101945.66;4999488;28;20255;-66
2022/03/03 09:24:30;;;;;;;22.10;13.00;;;;;;;4.76;69.85;101944.75;4999557;28;20176;-65
2022/03/03 09:26:56;;;;;;;19.33;12.80;;;;;;;2.65;74.61;101957.75;4999969;28;20168;-65
2022/03/03 09:29:22;;;;;;;24.73;13.40;;;;;;;3.01;74.95;101958.19;4999496;28;20775;-68
2022/03/03 09:31:47;;;;;;;18.07;12.03;;;;;;;2.09;76.64;101966.28;4982725;28;20286;-66
2022/03/03 09:34:13;;;;;;;21.77;13.50;;;;;;;2.68;77.45;101963.09;5000010;28;20493;-65
2022/03/03 09:36:38;;;;;;;23.00;13.50;;;;;;;4.36;72.42;101956.44;4989656;28;20184;-67
2022/03/03 09:39:04;;;;;;;19.10;12.63;;;;;;;3.84;72.06;101949.28;4983269;28;20516;-65
2022/03/03 09:41:29;;;;;;;18.70;12.17;;;;;;;4.61;70.60;101949.13;4999587;28;20250;-66
2022/03/03 09:43:56;;;;;;;13.87;9.90;;;;;;;2.66;74.08;101967.25;4999200;28;20179;-67
2022/03/03 09:46:22;;;;;;;18.90;10.67;;;;;;;3.07;74.62;101961.94;4982248;28;20171;-67
2022/03/03 09:48:47;;;;;;;21.63;11.80;;;;;;;3.34;74.88;101967.84;4999321;28;20399;-66
2022/03/03 09:51:13;;;;;;;18.20;12.50;;;;;;;4.33;71.55;101958.84;4999013;28;20183;-66
2022/03/03 09:53:40;;;;;;;17.20;11.27;;;;;;;4.26;70.48;101948.97;4998995;28;20194;-66
2022/03/03 09:56:05;;;;;;;17.13;11.70;;;;;;;4.50;70.12;101956.28;4998907;28;20255;-67
2022/03/03 09:58:31;;;;;;;22.23;13.97;;;;;;;5.14;68.30;101955.31;4998664;28;20879;-65
2022/03/03 10:00:57;;;;;;;17.50;12.27;;;;;;;5.52;66.68;101948.59;4998821;28;20168;-65
2022/03/03 10:03:22;;;;;;;21.77;11.53;;;;;;;4.29;68.20;101954.31;4999072;28;20176;-66
2022/03/03 10:05:51;;;;;;;21.40;12.53;;;;;;;4.55;70.04;101960.00;4998920;28;20561;-65
2022/03/03 10:08:22;;;;;;;15.40;10.70;;;;;;;5.61;66.69;101950.78;4998753;28;20215;-66
2022/03/03 10:10:55;;;;;;;16.93;11.47;;;;;;;5.37;66.37;101959.97;4999107;28;20537;-66
2022/03/03 10:13:21;;;;;;;13.10;10.13;;;;;;;4.24;67.55;101967.78;4998652;28;20411;-66
2022/03/03 10:16:01;;;;;;;15.53;11.27;;;;;;;4.76;68.36;101965.41;4998839;28;20418;-66
2022/03/03 10:18:27;;;;;;;15.60;11.00;;;;;;;5.37;66.52;101951.31;4998452;28;20444;-66
2022/03/03 10:21:00;;;;;;;15.10;10.20;;;;;;;5.45;66.16;101955.16;4998731;28;20411;-68
2022/03/03 10:23:31;;;;;;;15.37;11.03;;;;;;;5.42;66.40;101951.56;4998842;28;20470;-66
2022/03/03 10:25:58;;;;;;;13.20;9.90;;;;;;;5.82;65.40;101953.50;4998414;28;20749;-63
2022/03/03 10:28:28;;;;;;;18.53;10.60;;;;;;;6.04;64.63;101958.94;4998416;28;20419;-64
2022/03/03 10:30:57;;;;;;;13.60;9.80;;;;;;;5.14;64.32;101974.31;4998199;28;20466;-68
2022/03/03 10:33:25;;;;;;;13.67;8.83;;;;;;;3.46;71.08;101978.00;4998531;28;20422;-65
2022/03/03 10:36:04;;;;;;;12.03;9.30;;;;;;;4.55;69.44;101986.72;4998449;28;20433;-67
2022/03/03 10:38:30;;;;;;;12.90;9.67;;;;;;;5.11;66.71;101986.19;4998336;28;20457;-66
2022/03/03 10:40:57;;;;;;;13.33;8.90;;;;;;;5.20;67.39;101981.50;4998478;28;20410;-65
2022/03/03 10:43:22;;;;;;;11.57;8.77;;;;;;;5.11;67.66;101975.84;4981916;28;20413;-65
2022/03/03 10:46:01;;;;;;;11.80;8.50;;;;;;;4.70;66.32;101996.97;4998631;28;20411;-67
2022/03/03 10:48:27;;;;;;;9.80;8.30;;;;;;;2.96;73.72;101998.25;4981272;28;20517;-64
2022/03/03 10:50:54;;;;;;;11.33;8.10;;;;;;;4.22;70.86;101985.75;4998325;28;20738;-65
2022/03/03 10:53:21;;;;;;;10.33;8.20;;;;;;;5.24;67.07;101970.50;4998551;28;20415;-67
2022/03/03 10:56:06;;;;;;;10.80;8.50;;;;;;;5.65;65.57;101963.91;4998852;28;20419;-65
2022/03/03 10:58:46;;;;;;;12.07;9.30;;;;;;;3.68;69.10;101981.03;4998507;28;20411;-66
2022/03/03 11:01:12;;;;;;;10.30;8.40;;;;;;;3.99;71.21;101976.72;4998690;28;20729;-63
2022/03/03 11:03:39;;;;;;;12.40;9.07;;;;;;;5.54;67.33;101970.28;4992851;28;20424;-65
2022/03/03 11:06:04;;;;;;;12.30;9.33;;;;;;;5.92;65.31;101971.28;4978652;28;20204;-64
2022/03/03 11:08:29;;;;;;;16.30;8.30;;;;;;;5.50;65.55;101964.03;4980946;28;20495;-65
2022/03/03 11:10:55;;;;;;;10.70;9.00;;;;;;;5.50;66.40;101969.22;4981010;28;20265;-66
2022/03/03 11:13:21;;;;;;;13.40;9.07;;;;;;;6.03;63.79;101951.97;4981689;28;20172;-65
2022/03/03 11:15:48;;;;;;;9.70;8.40;;;;;;;6.28;63.23;101949.66;4998084;28;20482;-65
2022/03/03 11:18:18;;;;;;;10.17;8.47;;;;;;;6.49;63.17;101954.97;4998136;28;20268;-65